Time;durP1;ratioP1;P1;durP2;ratioP2;P2;SDS_P1;SDS_P2;PMS_P1;PMS_P2;Temp;Humidity;BMP_temperature;BMP_pressure;BME280_temperature;BME280_humidity;BME280_pressure;Samples;Min_cycle;Max_cycle;Signal;HPM_P1;HPM_P2
2023/12/11 05:06:07;;;;;;;0.30;0.30;;;9.10;99.90;;;;;;5486844;23;20232;-67
2023/12/11 05:08:32;;;;;;;0.30;0.30;;;9.10;99.90;;;;;;4954638;29;20208;-67
2023/12/11 05:10:58;;;;;;;0.30;0.30;;;9.10;99.90;;;;;;4955570;29;20557;-67
2023/12/11 05:13:23;;;;;;;0.30;0.30;;;9.00;99.90;;;;;;4955357;29;20180;-67
2023/12/11 05:15:49;;;;;;;0.30;0.30;;;9.00;99.90;;;;;;4937765;29;20734;-67
2023/12/11 05:18:15;;;;;;;0.40;0.40;;;9.00;99.90;;;;;;4955548;29;20174;-67
2023/12/11 05:20:40;;;;;;;0.30;0.30;;;8.90;99.90;;;;;;4955395;29;20179;-67
2023/12/11 05:23:06;;;;;;;0.30;0.30;;;8.90;99.90;;;;;;4955321;29;20168;-67
2023/12/11 05:25:32;;;;;;;0.30;0.30;;;8.80;99.90;;;;;;4955055;29;20172;-67
2023/12/11 05:27:57;;;;;;;0.30;0.30;;;8.80;99.90;;;;;;4955282;29;20223;-67
2023/12/11 05:30:23;;;;;;;0.30;0.30;;;8.80;99.90;;;;;;4955196;29;20183;-67
2023/12/11 05:32:48;;;;;;;0.40;0.40;;;8.80;99.90;;;;;;4955309;29;20176;-66
2023/12/11 05:35:14;;;;;;;0.30;0.30;;;8.80;99.90;;;;;;4954449;29;20169;-67
2023/12/11 05:37:40;;;;;;;0.30;0.30;;;8.80;99.90;;;;;;4954680;29;20261;-67
2023/12/11 05:40:07;;;;;;;0.30;0.30;;;8.80;99.90;;;;;;4955364;29;20650;-67
2023/12/11 05:42:32;;;;;;;0.30;0.30;;;8.80;99.90;;;;;;4955662;28;20173;-67
2023/12/11 05:44:58;;;;;;;0.30;0.20;;;8.80;99.90;;;;;;4941519;29;20172;-66
2023/12/11 05:47:23;;;;;;;0.30;0.30;;;8.90;99.90;;;;;;4958798;29;20216;-67
2023/12/11 05:49:49;;;;;;;0.30;0.30;;;9.00;99.90;;;;;;4958785;29;20196;-67
2023/12/11 05:52:15;;;;;;;0.30;0.30;;;9.00;99.90;;;;;;4959034;29;20175;-67
2023/12/11 05:54:40;;;;;;;0.27;0.27;;;9.00;99.90;;;;;;4958445;29;20176;-67
2023/12/11 05:57:06;;;;;;;0.30;0.30;;;9.00;99.90;;;;;;4958662;29;20224;-67
2023/12/11 05:59:32;;;;;;;0.30;0.20;;;8.90;99.90;;;;;;4958750;29;20173;-66
2023/12/11 06:01:58;;;;;;;0.30;0.30;;;8.90;99.90;;;;;;4958687;29;20563;-67
2023/12/11 06:04:23;;;;;;;0.30;0.30;;;8.90;99.90;;;;;;4958112;29;20169;-67
2023/12/11 06:06:49;;;;;;;0.30;0.30;;;8.90;99.90;;;;;;4958433;29;20200;-67
2023/12/11 06:09:15;;;;;;;0.30;0.20;;;8.90;99.90;;;;;;4941128;29;20208;-67
2023/12/11 06:11:40;;;;;;;0.30;0.30;;;8.90;99.90;;;;;;4958650;29;20165;-67
2023/12/11 06:14:06;;;;;;;0.30;0.20;;;8.90;99.90;;;;;;4958377;29;20619;-68
2023/12/11 06:16:32;;;;;;;0.30;0.30;;;8.90;99.90;;;;;;4958413;29;20424;-66
2023/12/11 06:18:58;;;;;;;0.30;0.30;;;8.80;99.90;;;;;;4958449;29;20180;-67
2023/12/11 06:21:25;;;;;;;0.30;0.30;;;8.80;99.90;;;;;;4958111;29;20180;-68
2023/12/11 06:23:50;;;;;;;0.30;0.30;;;8.80;99.90;;;;;;4958099;29;20507;-68
2023/12/11 06:26:31;;;;;;;0.30;0.30;;;8.80;99.90;;;;;;4957495;29;20292;-70
2023/12/11 06:28:59;;;;;;;0.30;0.20;;;8.80;99.90;;;;;;4957841;29;20451;-69
2023/12/11 06:31:25;;;;;;;0.30;0.30;;;8.80;99.90;;;;;;4958004;29;20176;-69
2023/12/11 06:33:51;;;;;;;0.30;0.30;;;8.80;99.90;;;;;;4957925;29;20252;-70
2023/12/11 06:36:17;;;;;;;0.30;0.30;;;8.80;99.90;;;;;;4957516;29;20301;-70
2023/12/11 06:38:43;;;;;;;0.30;0.20;;;8.80;99.90;;;;;;4958026;29;20185;-70
2023/12/11 06:41:08;;;;;;;0.40;0.40;;;8.80;99.90;;;;;;4957740;29;20172;-67
2023/12/11 06:43:35;;;;;;;0.30;0.30;;;8.80;99.90;;;;;;4958075;29;20172;-69
2023/12/11 06:46:02;;;;;;;0.30;0.30;;;8.80;99.90;;;;;;4957245;29;20199;-71
2023/12/11 06:48:28;;;;;;;0.30;0.30;;;8.90;99.90;;;;;;4957687;29;20550;-67
2023/12/11 06:50:57;;;;;;;0.30;0.30;;;8.90;99.90;;;;;;4957649;29;20207;-65
2023/12/11 06:53:22;;;;;;;0.30;0.20;;;9.00;99.90;;;;;;4957955;29;20503;-68
2023/12/11 06:55:48;;;;;;;0.30;0.30;;;9.10;99.90;;;;;;4956439;28;20176;-70
2023/12/11 06:58:14;;;;;;;0.30;0.30;;;9.20;99.90;;;;;;4957669;29;20175;-68
2023/12/11 07:00:39;;;;;;;0.30;0.30;;;9.20;99.90;;;;;;4940236;29;20204;-69
2023/12/11 07:03:05;;;;;;;0.73;0.73;;;9.20;99.90;;;;;;4957528;29;20488;-69
2023/12/11 07:05:32;;;;;;;0.30;0.20;;;9.20;99.90;;;;;;4957136;29;20172;-70
2023/12/11 07:07:58;;;;;;;0.30;0.30;;;9.10;99.90;;;;;;4957254;29;20208;-70
2023/12/11 07:10:23;;;;;;;0.40;0.40;;;9.10;99.90;;;;;;4957292;29;20184;-68
2023/12/11 07:12:49;;;;;;;0.40;0.40;;;9.10;99.90;;;;;;4957569;29;20262;-68
2023/12/11 07:15:15;;;;;;;0.30;0.30;;;9.10;99.90;;;;;;4956953;29;20180;-68
2023/12/11 07:17:41;;;;;;;0.30;0.20;;;9.10;99.90;;;;;;4956880;29;20425;-69
2023/12/11 07:20:07;;;;;;;0.40;0.40;;;9.20;99.90;;;;;;4955874;29;20413;-68
2023/12/11 07:22:34;;;;;;;0.30;0.30;;;9.20;99.90;;;;;;4955796;29;20169;-69
2023/12/11 07:25:00;;;;;;;0.30;0.30;;;9.30;99.90;;;;;;4955758;29;20165;-68
2023/12/11 07:27:26;;;;;;;0.30;0.30;;;9.30;99.90;;;;;;4955832;29;20212;-69
2023/12/11 07:29:51;;;;;;;0.30;0.30;;;9.30;99.90;;;;;;4955549;29;20460;-68
2023/12/11 07:32:18;;;;;;;0.30;0.27;;;9.40;99.90;;;;;;4955941;28;20251;-70
2023/12/11 07:35:11;;;;;;;0.30;0.30;;;9.40;99.90;;;;;;4967042;28;20574;-71
2023/12/11 07:37:39;;;;;;;0.30;0.30;;;9.40;99.90;;;;;;4944345;28;20208;-68
2023/12/11 07:40:06;;;;;;;0.30;0.30;;;9.50;99.90;;;;;;4959303;28;20508;-69
2023/12/11 07:42:31;;;;;;;0.30;0.30;;;9.50;99.90;;;;;;4968756;28;20180;-70
2023/12/11 07:44:57;;;;;;;0.30;0.30;;;9.50;99.90;;;;;;4956956;28;20177;-68
2023/12/11 07:47:23;;;;;;;0.30;0.30;;;9.60;99.90;;;;;;4956075;29;20188;-68
2023/12/11 07:49:48;;;;;;;0.33;0.33;;;9.60;99.90;;;;;;4956622;29;20239;-66
2023/12/11 07:52:14;;;;;;;0.30;0.30;;;9.60;99.90;;;;;;4956100;28;20183;-65
2023/12/11 07:54:40;;;;;;;0.30;0.30;;;9.70;99.90;;;;;;4959300;28;20268;-69
2023/12/11 07:57:05;;;;;;;0.30;0.30;;;9.70;99.90;;;;;;4956516;29;20471;-68
2023/12/11 07:59:31;;;;;;;0.30;0.30;;;9.80;99.90;;;;;;4959352;28;20181;-68
2023/12/11 08:01:57;;;;;;;0.33;0.33;;;9.80;99.90;;;;;;4967831;28;20190;-69
2023/12/11 08:04:22;;;;;;;0.30;0.30;;;9.90;99.90;;;;;;4964206;28;20242;-69
2023/12/11 08:06:50;;;;;;;0.30;0.20;;;9.90;99.90;;;;;;4975174;28;20658;-68
2023/12/11 08:09:15;;;;;;;0.30;0.30;;;9.90;99.90;;;;;;4971399;28;20662;-69
2023/12/11 08:11:41;;;;;;;0.30;0.30;;;10.00;99.90;;;;;;4974433;28;20215;-69
2023/12/11 08:14:08;;;;;;;0.20;0.20;;;10.00;99.90;;;;;;4936130;29;20249;-69
2023/12/11 08:16:33;;;;;;;0.30;0.30;;;10.00;99.90;;;;;;4936352;29;20191;-69
2023/12/11 08:19:02;;;;;;;0.30;0.20;;;10.10;99.90;;;;;;4937376;29;20689;-69
2023/12/11 08:21:28;;;;;;;0.30;0.30;;;10.30;99.90;;;;;;4937005;29;20593;-69
2023/12/11 08:23:57;;;;;;;0.30;0.30;;;10.40;99.90;;;;;;4936530;29;20258;-68
2023/12/11 08:26:22;;;;;;;0.30;0.30;;;10.50;99.90;;;;;;4936636;29;20594;-69
2023/12/11 08:28:49;;;;;;;0.30;0.30;;;10.60;99.90;;;;;;4936802;29;20493;-68
2023/12/11 08:31:15;;;;;;;0.30;0.30;;;10.60;99.90;;;;;;4937121;29;20181;-68
2023/12/11 08:33:41;;;;;;;0.30;0.30;;;10.60;99.90;;;;;;4936803;29;20439;-64
2023/12/11 08:36:07;;;;;;;0.30;0.30;;;10.60;99.90;;;;;;4936180;29;20659;-64
2023/12/11 08:38:33;;;;;;;0.30;0.27;;;10.60;99.90;;;;;;4936540;29;20258;-64
2023/12/11 08:40:59;;;;;;;0.30;0.20;;;10.70;99.90;;;;;;4936909;29;20416;-65
2023/12/11 08:43:25;;;;;;;0.30;0.30;;;10.70;99.90;;;;;;4936803;29;20459;-65
2023/12/11 08:45:52;;;;;;;0.30;0.20;;;10.70;99.90;;;;;;4936167;29;20185;-64
2023/12/11 08:48:17;;;;;;;0.30;0.20;;;10.80;99.90;;;;;;4936569;29;20209;-64
2023/12/11 08:50:43;;;;;;;0.30;0.30;;;10.90;99.90;;;;;;4936370;29;20412;-63
2023/12/11 08:53:09;;;;;;;0.30;0.30;;;11.00;99.90;;;;;;4935973;29;20180;-64
2023/12/11 08:55:35;;;;;;;0.30;0.30;;;11.00;99.90;;;;;;4935749;29;20179;-64
2023/12/11 08:58:01;;;;;;;0.30;0.30;;;11.10;99.90;;;;;;4936553;29;20217;-66
2023/12/11 09:00:28;;;;;;;0.30;0.30;;;11.20;99.90;;;;;;4935789;29;20912;-67
2023/12/11 09:02:53;;;;;;;0.30;0.30;;;11.30;99.90;;;;;;4936430;29;20267;-65
2023/12/11 09:05:19;;;;;;;0.30;0.20;;;11.40;99.90;;;;;;4936059;29;20443;-67
2023/12/11 09:07:45;;;;;;;0.30;0.30;;;11.70;99.90;;;;;;4936135;29;20220;-68
2023/12/11 09:10:11;;;;;;;0.30;0.30;;;11.90;99.90;;;;;;4936271;29;20413;-66
2023/12/11 09:12:37;;;;;;;0.30;0.30;;;12.00;99.90;;;;;;4936530;29;20288;-66
2023/12/11 09:15:04;;;;;;;0.30;0.30;;;12.10;99.90;;;;;;4935876;29;20177;-64
2023/12/11 09:17:29;;;;;;;0.30;0.27;;;12.10;99.90;;;;;;4935729;29;21002;-65
2023/12/11 09:19:55;;;;;;;0.30;0.20;;;12.10;99.90;;;;;;4936187;29;20414;-64
2023/12/11 09:22:21;;;;;;;0.30;0.30;;;12.20;99.90;;;;;;4935891;29;20183;-64
2023/12/11 09:24:46;;;;;;;0.30;0.30;;;12.20;99.90;;;;;;4935611;29;20559;-67
2023/12/11 09:27:12;;;;;;;0.30;0.30;;;12.20;99.90;;;;;;4919059;29;20286;-66
2023/12/11 09:29:38;;;;;;;0.30;0.20;;;12.10;99.90;;;;;;4936622;29;20207;-67
2023/12/11 09:32:04;;;;;;;0.50;0.50;;;12.20;99.90;;;;;;4936212;29;20535;-65
2023/12/11 09:34:29;;;;;;;0.30;0.30;;;12.10;99.90;;;;;;4935781;29;20183;-67
2023/12/11 09:36:55;;;;;;;0.30;0.30;;;12.10;99.90;;;;;;4936040;29;20848;-65
2023/12/11 09:39:22;;;;;;;0.30;0.30;;;12.00;99.90;;;;;;4936189;29;20698;-66
2023/12/11 09:41:48;;;;;;;0.30;0.20;;;12.10;99.90;;;;;;4935999;29;20221;-65
2023/12/11 09:44:16;;;;;;;0.30;0.30;;;12.10;99.90;;;;;;4935811;29;20420;-66
2023/12/11 09:46:49;;;;;;;0.40;0.40;;;12.00;99.90;;;;;;4935954;29;20440;-66
2023/12/11 09:49:16;;;;;;;0.30;0.30;;;12.00;99.90;;;;;;4935820;29;20539;-66
2023/12/11 09:51:42;;;;;;;0.30;0.20;;;12.00;99.90;;;;;;4935785;29;20391;-67
2023/12/11 09:54:08;;;;;;;0.30;0.30;;;12.10;99.90;;;;;;4935404;29;20752;-67
2023/12/11 09:56:34;;;;;;;0.30;0.20;;;12.10;99.90;;;;;;4935903;29;20191;-66
2023/12/11 09:59:02;;;;;;;0.30;0.20;;;12.10;99.90;;;;;;4935709;29;20733;-67
2023/12/11 10:01:28;;;;;;;0.30;0.20;;;12.10;99.90;;;;;;4935660;29;20424;-64
2023/12/11 10:03:54;;;;;;;0.30;0.30;;;12.20;99.90;;;;;;4935184;29;20423;-66
2023/12/11 10:06:20;;;;;;;0.30;0.20;;;12.30;99.90;;;;;;4935179;29;20447;-66
2023/12/11 10:08:52;;;;;;;0.30;0.20;;;12.50;99.90;;;;;;4935651;29;20471;-66
2023/12/11 10:11:19;;;;;;;0.30;0.30;;;12.60;99.90;;;;;;4935904;29;20543;-66
2023/12/11 10:13:45;;;;;;;0.30;0.30;;;12.80;99.90;;;;;;4935702;29;20479;-67
2023/12/11 10:16:31;;;;;;;0.30;0.30;;;13.00;99.90;;;;;;4935395;29;20429;-66
2023/12/11 10:18:57;;;;;;;0.30;0.30;;;13.20;99.90;;;;;;4935550;29;20800;-68
2023/12/11 10:21:24;;;;;;;0.30;0.30;;;13.30;99.90;;;;;;4935702;29;20417;-67
2023/12/11 10:24:13;;;;;;;0.40;0.40;;;13.30;99.90;;;;;;4935463;29;20414;-68
2023/12/11 10:26:45;;;;;;;0.30;0.30;;;13.60;99.90;;;;;;4935265;29;20577;-66
2023/12/11 10:29:18;;;;;;;0.30;0.30;;;14.00;99.90;;;;;;4919560;29;20466;-67
2023/12/11 10:31:44;;;;;;;0.30;0.30;;;14.70;99.90;;;;;;4938837;29;20402;-65
2023/12/11 10:34:10;;;;;;;0.30;0.30;;;15.30;99.90;;;;;;4938484;29;20431;-67
2023/12/11 10:36:46;;;;;;;0.30;0.30;;;15.80;99.90;;;;;;4938510;29;20456;-65
2023/12/11 10:39:11;;;;;;;0.30;0.30;;;16.00;99.90;;;;;;4938521;29;20173;-68
2023/12/11 10:41:37;;;;;;;0.30;0.30;;;16.10;99.90;;;;;;4938605;29;20417;-66
2023/12/11 10:44:03;;;;;;;0.30;0.30;;;16.10;99.90;;;;;;4938403;29;20174;-68
2023/12/11 10:46:29;;;;;;;0.30;0.30;;;16.00;99.90;;;;;;4938639;29;20656;-66
2023/12/11 10:48:55;;;;;;;0.30;0.20;;;15.90;99.90;;;;;;4938439;29;20237;-64
2023/12/11 10:51:21;;;;;;;0.30;0.30;;;15.70;99.90;;;;;;4938479;29;20883;-65
2023/12/11 10:53:47;;;;;;;0.30;0.30;;;15.40;99.90;;;;;;4938582;29;20405;-66
2023/12/11 10:56:13;;;;;;;0.30;0.20;;;15.20;99.90;;;;;;4921026;29;20445;-65
2023/12/11 10:58:38;;;;;;;0.30;0.30;;;15.10;99.90;;;;;;4938931;29;20194;-64
2023/12/11 11:01:07;;;;;;;0.30;0.30;;;15.00;99.90;;;;;;4928969;29;20949;-65
2023/12/11 11:03:33;;;;;;;0.30;0.20;;;14.90;99.90;;;;;;4957751;29;20224;-64
2023/12/11 11:05:59;;;;;;;0.30;0.30;;;14.80;99.90;;;;;;4956616;28;20423;-66
2023/12/11 11:08:37;;;;;;;0.30;0.30;;;14.70;99.90;;;;;;4955434;28;20465;-65
2023/12/11 11:11:23;;;;;;;0.30;0.30;;;14.50;99.90;;;;;;4938173;29;20502;-64
2023/12/11 11:14:04;;;;;;;0.30;0.20;;;14.30;99.90;;;;;;4957732;28;20436;-63
2023/12/11 11:16:55;;;;;;;0.30;0.30;;;14.20;99.90;;;;;;4956111;29;20443;-64
2023/12/11 11:19:22;;;;;;;0.30;0.30;;;14.10;99.90;;;;;;4956811;29;20479;-64
2023/12/11 11:22:18;;;;;;;0.30;0.20;;;14.10;99.90;;;;;;4939423;29;20458;-64
2023/12/11 11:24:44;;;;;;;0.30;0.30;;;14.10;99.90;;;;;;4931263;29;20461;-63
2023/12/11 11:27:48;;;;;;;0.30;0.30;;;14.00;99.90;;;;;;4956479;29;20468;-62
2023/12/11 11:30:44;;;;;;;0.30;0.30;;;14.00;99.90;;;;;;4897397;29;20765;-64
2023/12/11 11:33:10;;;;;;;0.30;0.20;;;14.00;99.90;;;;;;4897129;29;20440;-64
2023/12/11 11:35:50;;;;;;;0.40;0.40;;;13.90;99.90;;;;;;4897364;29;20423;-63
2023/12/11 11:38:18;;;;;;;0.30;0.20;;;14.00;99.90;;;;;;4898294;29;20426;-64
2023/12/11 11:40:44;;;;;;;0.30;0.20;;;14.00;99.90;;;;;;4897146;29;20522;-64
2023/12/11 11:43:11;;;;;;;0.30;0.30;;;14.00;99.90;;;;;;4897297;29;20514;-66
2023/12/11 11:45:37;;;;;;;0.30;0.30;;;14.00;99.90;;;;;;4897336;29;20784;-65
2023/12/11 11:48:03;;;;;;;0.30;0.30;;;14.10;99.90;;;;;;4897764;29;20450;-65
2023/12/11 11:50:29;;;;;;;0.30;0.30;;;14.00;99.90;;;;;;4897351;29;20438;-67
2023/12/11 11:53:04;;;;;;;0.30;0.30;;;13.90;99.90;;;;;;4897350;29;20415;-66
2023/12/11 11:55:30;;;;;;;0.30;0.30;;;13.90;99.90;;;;;;4897215;29;20202;-65
2023/12/11 11:57:56;;;;;;;0.30;0.30;;;13.80;99.90;;;;;;4897637;29;20451;-65
2023/12/11 12:00:27;;;;;;;0.30;0.30;;;13.70;99.90;;;;;;4912658;29;20184;-66
2023/12/11 12:03:04;;;;;;;0.33;0.33;;;13.50;99.90;;;;;;4955833;29;20429;-66
2023/12/11 12:05:29;;;;;;;0.30;0.30;;;13.40;99.90;;;;;;4959446;28;20901;-65
2023/12/11 12:07:55;;;;;;;0.30;0.30;;;13.30;99.90;;;;;;4956056;29;20464;-65
2023/12/11 12:10:22;;;;;;;0.30;0.30;;;13.20;99.90;;;;;;4957338;28;20200;-66
2023/12/11 12:12:50;;;;;;;0.30;0.20;;;13.20;99.90;;;;;;4972643;28;20422;-65
2023/12/11 12:15:16;;;;;;;0.30;0.30;;;13.20;99.90;;;;;;4957703;28;20429;-65
2023/12/11 12:17:43;;;;;;;0.30;0.30;;;13.20;99.90;;;;;;4963394;28;20439;-66
2023/12/11 12:20:16;;;;;;;0.30;0.30;;;13.20;99.90;;;;;;4956716;28;20440;-66
2023/12/11 12:23:15;;;;;;;0.40;0.40;;;13.30;99.90;;;;;;4966313;28;20816;-67
2023/12/11 12:25:40;;;;;;;0.30;0.30;;;13.40;99.90;;;;;;4920062;28;20849;-73
2023/12/11 12:28:11;;;;;;;0.30;0.30;;;13.50;99.90;;;;;;4955854;29;20549;-67
2023/12/11 12:30:37;;;;;;;0.37;0.37;;;13.50;99.90;;;;;;4962020;28;20204;-71
2023/12/11 12:33:08;;;;;;;0.30;0.30;;;13.50;99.90;;;;;;4970202;28;20397;-71
2023/12/11 12:35:35;;;;;;;0.30;0.30;;;13.60;99.90;;;;;;4969689;28;20183;-69
2023/12/11 12:38:02;;;;;;;0.30;0.20;;;13.60;99.90;;;;;;4958382;28;20444;-70
2023/12/11 12:40:28;;;;;;;0.30;0.30;;;13.60;99.90;;;;;;4959074;28;20787;-70
2023/12/11 12:42:54;;;;;;;0.30;0.30;;;13.70;99.90;;;;;;4965671;28;20411;-72
2023/12/11 12:45:34;;;;;;;0.30;0.20;;;13.80;99.90;;;;;;4964582;28;20425;-69
2023/12/11 12:48:00;;;;;;;0.30;0.30;;;13.80;99.90;;;;;;4964529;28;20497;-68
2023/12/11 12:50:27;;;;;;;0.30;0.30;;;13.90;99.90;;;;;;4964222;28;20394;-66
2023/12/11 12:53:16;;;;;;;0.30;0.20;;;13.90;99.90;;;;;;4969558;28;20422;-70
2023/12/11 12:55:42;;;;;;;0.30;0.30;;;13.90;99.90;;;;;;4962046;28;20493;-68
2023/12/11 12:58:08;;;;;;;0.30;0.27;;;14.00;99.90;;;;;;4963501;28;20423;-68
2023/12/11 13:00:34;;;;;;;0.30;0.20;;;14.10;99.90;;;;;;4971528;28;20434;-70
2023/12/11 13:03:03;;;;;;;0.33;0.33;;;14.00;99.90;;;;;;4936277;28;20836;-69
2023/12/11 13:05:39;;;;;;;0.30;0.30;;;14.10;99.90;;;;;;4967797;28;20412;-68
2023/12/11 13:08:05;;;;;;;0.30;0.30;;;14.10;99.90;;;;;;4970108;28;20976;-69
2023/12/11 13:10:31;;;;;;;0.40;0.40;;;14.10;99.90;;;;;;4965275;28;20456;-68
2023/12/11 13:12:56;;;;;;;0.30;0.20;;;14.20;99.90;;;;;;4969032;28;20180;-68
2023/12/11 13:15:22;;;;;;;0.30;0.20;;;14.20;99.90;;;;;;4974163;28;20231;-65
2023/12/11 13:17:54;;;;;;;0.30;0.30;;;14.30;99.90;;;;;;4961521;28;20215;-71
2023/12/11 13:20:19;;;;;;;0.30;0.20;;;14.40;99.90;;;;;;4956339;28;20183;-70
2023/12/11 13:22:46;;;;;;;0.30;0.20;;;14.40;99.90;;;;;;4958695;28;20435;-69
2023/12/11 13:25:12;;;;;;;0.40;0.40;;;14.50;99.90;;;;;;4954757;29;20219;-68
2023/12/11 13:27:38;;;;;;;0.30;0.30;;;14.60;99.90;;;;;;4964917;28;20941;-70
2023/12/11 13:30:04;;;;;;;0.30;0.20;;;14.70;99.90;;;;;;4970028;28;20709;-70
2023/12/11 13:32:30;;;;;;;0.30;0.20;;;14.60;99.90;;;;;;4962811;28;20186;-70
2023/12/11 13:34:56;;;;;;;0.70;0.70;;;14.60;99.90;;;;;;4965449;28;20866;-70
2023/12/11 13:37:21;;;;;;;0.30;0.30;;;14.50;99.60;;;;;;4965868;28;20802;-68
2023/12/11 13:39:47;;;;;;;0.30;0.30;;;14.50;99.80;;;;;;4954873;29;20428;-66
2023/12/11 13:42:13;;;;;;;0.30;0.30;;;14.40;99.90;;;;;;4959689;28;20185;-69
2023/12/11 13:44:38;;;;;;;0.30;0.30;;;14.30;99.90;;;;;;4954560;29;20184;-69
2023/12/11 13:47:04;;;;;;;0.30;0.30;;;14.20;99.90;;;;;;4960101;28;20547;-69
2023/12/11 13:49:30;;;;;;;0.30;0.30;;;14.10;99.90;;;;;;4964399;28;20223;-70
2023/12/11 13:51:55;;;;;;;0.30;0.30;;;14.00;99.90;;;;;;4939986;28;20516;-68
2023/12/11 13:54:22;;;;;;;0.40;0.40;;;13.80;99.90;;;;;;4972886;28;20227;-70
2023/12/11 13:56:48;;;;;;;0.33;0.33;;;13.70;99.90;;;;;;4972480;28;20593;-71
2023/12/11 13:59:14;;;;;;;0.30;0.30;;;13.50;99.90;;;;;;4958561;28;20426;-70
2023/12/11 14:01:40;;;;;;;0.30;0.30;;;13.50;99.90;;;;;;4956908;28;20184;-69
2023/12/11 14:04:05;;;;;;;0.30;0.20;;;13.40;99.90;;;;;;4971688;28;20246;-70
2023/12/11 14:06:31;;;;;;;0.30;0.30;;;13.20;99.90;;;;;;4967428;28;20204;-69
2023/12/11 14:08:56;;;;;;;0.30;0.30;;;13.10;99.90;;;;;;4974293;28;20209;-71
2023/12/11 14:11:22;;;;;;;0.30;0.30;;;13.00;99.90;;;;;;4961677;28;20516;-70
2023/12/11 14:13:47;;;;;;;0.30;0.30;;;12.90;99.90;;;;;;4969008;28;20184;-73
2023/12/11 14:16:13;;;;;;;0.30;0.30;;;12.80;99.90;;;;;;4959061;28;20202;-72
2023/12/11 14:18:41;;;;;;;0.30;0.30;;;12.70;99.90;;;;;;4961926;28;20649;-71
2023/12/11 14:21:08;;;;;;;0.30;0.30;;;12.70;99.90;;;;;;4958659;28;20207;-72
2023/12/11 14:23:34;;;;;;;0.30;0.30;;;12.60;99.90;;;;;;4953564;28;20453;-71
2023/12/11 14:26:00;;;;;;;0.37;0.37;;;12.50;99.90;;;;;;4963359;28;20514;-71
2023/12/11 14:28:26;;;;;;;0.30;0.30;;;12.40;99.90;;;;;;4968849;28;20207;-68
2023/12/11 14:30:52;;;;;;;0.40;0.40;;;12.30;99.90;;;;;;4953664;28;20195;-71
2023/12/11 14:33:19;;;;;;;0.30;0.30;;;12.20;99.90;;;;;;4957767;29;20311;-69
2023/12/11 14:35:45;;;;;;;0.30;0.30;;;12.10;99.90;;;;;;4957444;29;20569;-71
2023/12/11 14:38:11;;;;;;;0.60;0.60;;;12.10;99.90;;;;;;4958058;29;20422;-69
2023/12/11 14:40:37;;;;;;;0.33;0.33;;;12.00;99.90;;;;;;4958223;29;20785;-72
2023/12/11 14:43:02;;;;;;;0.30;0.30;;;11.90;99.90;;;;;;4958144;29;20176;-70
2023/12/11 14:45:30;;;;;;;0.30;0.20;;;11.80;99.90;;;;;;4957419;29;20214;-70
2023/12/11 14:47:55;;;;;;;0.30;0.30;;;11.80;99.90;;;;;;4940464;29;20203;-69
2023/12/11 14:50:21;;;;;;;0.30;0.30;;;11.70;99.90;;;;;;4957866;29;20415;-70
2023/12/11 14:52:47;;;;;;;0.30;0.30;;;11.60;99.90;;;;;;4957918;29;20562;-70
2023/12/11 14:55:12;;;;;;;0.30;0.30;;;11.50;99.90;;;;;;4957321;29;20188;-69
2023/12/11 14:57:38;;;;;;;0.43;0.43;;;11.40;99.90;;;;;;4957870;29;20222;-71
2023/12/11 15:00:05;;;;;;;0.40;0.40;;;11.30;99.90;;;;;;4957723;29;20256;-68
2023/12/11 15:02:31;;;;;;;0.30;0.30;;;11.30;99.90;;;;;;4957456;29;20175;-71
2023/12/11 15:04:56;;;;;;;0.30;0.20;;;11.20;99.90;;;;;;4940037;29;20713;-69
2023/12/11 15:07:22;;;;;;;0.30;0.30;;;11.10;99.90;;;;;;4957677;29;20299;-73
2023/12/11 15:09:48;;;;;;;0.30;0.30;;;11.00;99.90;;;;;;4957657;29;20200;-69
2023/12/11 15:12:13;;;;;;;0.30;0.30;;;10.80;99.90;;;;;;4957528;29;20197;-70
2023/12/11 15:14:39;;;;;;;0.30;0.30;;;10.80;99.90;;;;;;4956959;28;20492;-70
2023/12/11 15:17:05;;;;;;;0.40;0.40;;;10.70;99.90;;;;;;4956798;29;20190;-71
2023/12/11 15:19:31;;;;;;;0.30;0.30;;;10.60;99.90;;;;;;4957518;29;20418;-72
2023/12/11 15:21:57;;;;;;;0.70;0.70;;;10.60;99.90;;;;;;4940299;29;20189;-69
2023/12/11 15:24:22;;;;;;;0.30;0.30;;;10.50;99.90;;;;;;4957054;29;20176;-70
2023/12/11 15:26:48;;;;;;;0.47;0.47;;;10.60;99.90;;;;;;4957176;29;20278;-69
2023/12/11 15:29:14;;;;;;;0.30;0.30;;;10.60;99.90;;;;;;4956838;29;20314;-73
2023/12/11 15:31:42;;;;;;;0.30;0.30;;;10.50;99.90;;;;;;4957176;29;20258;-70
2023/12/11 15:34:07;;;;;;;0.30;0.30;;;10.50;99.90;;;;;;4956804;29;20166;-70
2023/12/11 15:36:33;;;;;;;0.30;0.20;;;10.40;99.90;;;;;;4957014;29;20288;-71
2023/12/11 15:38:58;;;;;;;0.30;0.30;;;10.40;99.90;;;;;;4956889;29;20173;-69
2023/12/11 15:41:24;;;;;;;0.30;0.30;;;10.40;99.90;;;;;;4957228;29;20173;-73
2023/12/11 15:43:49;;;;;;;0.60;0.60;;;10.30;99.90;;;;;;4957304;29;20174;-72
2023/12/11 15:46:15;;;;;;;0.30;0.30;;;10.20;99.90;;;;;;4956612;29;20695;-70
2023/12/11 15:48:44;;;;;;;0.40;0.40;;;10.20;99.90;;;;;;4939768;29;20206;-70
2023/12/11 15:51:17;;;;;;;0.30;0.20;;;10.20;99.90;;;;;;4956762;29;20425;-72
2023/12/11 15:53:44;;;;;;;0.32;0.32;;;10.10;99.90;;;;;;4939626;29;20670;-71
2023/12/11 15:56:10;;;;;;;0.30;0.30;;;10.10;99.90;;;;;;4956176;29;20289;-70
2023/12/11 15:58:39;;;;;;;0.30;0.30;;;10.00;99.90;;;;;;4956908;29;20259;-72
2023/12/11 16:01:11;;;;;;;0.30;0.20;;;10.00;99.90;;;;;;4956704;29;20180;-71
2023/12/11 16:03:37;;;;;;;0.30;0.30;;;9.90;99.90;;;;;;4956719;29;20173;-70
2023/12/11 16:06:04;;;;;;;0.40;0.40;;;9.90;99.90;;;;;;4956070;29;20209;-70
2023/12/11 16:08:29;;;;;;;0.30;0.30;;;9.90;99.90;;;;;;4956244;29;20224;-68
2023/12/11 16:10:55;;;;;;;0.30;0.30;;;9.90;99.90;;;;;;4956398;29;20166;-72
2023/12/11 16:13:21;;;;;;;0.40;0.40;;;9.80;99.90;;;;;;4956437;29;20165;-69
2023/12/11 16:15:47;;;;;;;0.30;0.30;;;9.80;99.90;;;;;;4955967;29;20639;-70
2023/12/11 16:18:12;;;;;;;0.30;0.30;;;9.80;99.90;;;;;;4956171;29;20252;-69
2023/12/11 16:20:38;;;;;;;0.30;0.30;;;9.80;99.90;;;;;;4956388;29;20608;-69
2023/12/11 16:23:03;;;;;;;0.30;0.30;;;9.70;99.90;;;;;;4956402;29;20599;-68
2023/12/11 16:25:29;;;;;;;0.30;0.30;;;9.80;99.90;;;;;;4955434;29;20208;-70
2023/12/11 16:27:55;;;;;;;0.30;0.30;;;9.80;99.90;;;;;;4956180;28;20188;-70
2023/12/11 16:30:20;;;;;;;0.30;0.30;;;9.90;99.90;;;;;;4956582;29;20786;-69
2023/12/11 16:32:46;;;;;;;0.30;0.30;;;9.90;99.90;;;;;;4955631;29;20177;-71
2023/12/11 16:35:11;;;;;;;0.30;0.30;;;10.00;99.90;;;;;;4955756;29;20173;-68
2023/12/11 16:37:37;;;;;;;0.30;0.30;;;10.00;99.90;;;;;;4956068;29;20271;-70
2023/12/11 16:40:06;;;;;;;0.30;0.30;;;10.00;99.90;;;;;;4955898;29;20224;-71
2023/12/11 16:42:34;;;;;;;0.30;0.30;;;10.00;99.90;;;;;;4955419;29;20181;-69
2023/12/11 16:45:00;;;;;;;0.30;0.30;;;10.00;99.90;;;;;;4955434;29;20172;-70
2023/12/11 16:47:25;;;;;;;0.40;0.40;;;10.00;99.90;;;;;;4955907;29;20197;-70
2023/12/11 16:49:52;;;;;;;0.30;0.30;;;10.00;99.90;;;;;;4938461;29;20221;-67
2023/12/11 16:52:17;;;;;;;0.30;0.30;;;10.00;99.90;;;;;;4938294;29;20180;-68
2023/12/11 16:54:43;;;;;;;0.30;0.30;;;10.00;99.90;;;;;;4955589;29;20264;-71
2023/12/11 16:57:09;;;;;;;0.30;0.30;;;10.10;99.90;;;;;;4955548;29;20194;-70
2023/12/11 16:59:34;;;;;;;0.30;0.20;;;10.20;99.90;;;;;;4955051;29;20722;-68
2023/12/11 17:02:00;;;;;;;0.30;0.27;;;10.20;99.90;;;;;;4954503;29;20409;-68
2023/12/11 17:04:26;;;;;;;0.30;0.30;;;10.20;99.90;;;;;;4937882;29;20595;-68
2023/12/11 17:06:51;;;;;;;0.50;0.43;;;10.30;99.90;;;;;;4955257;29;20205;-64
2023/12/11 17:09:17;;;;;;;0.30;0.30;;;10.30;99.90;;;;;;4955180;29;20303;-69
2023/12/11 17:11:43;;;;;;;0.30;0.30;;;10.40;99.90;;;;;;4955208;29;20184;-68
2023/12/11 17:14:10;;;;;;;0.38;0.38;;;10.50;99.90;;;;;;4954775;29;20181;-69
2023/12/11 17:16:36;;;;;;;0.30;0.30;;;10.50;99.90;;;;;;4954920;29;20209;-68
2023/12/11 17:19:03;;;;;;;0.30;0.30;;;10.50;99.90;;;;;;4954817;29;20647;-71
2023/12/11 17:21:29;;;;;;;0.32;0.32;;;10.60;99.90;;;;;;4955047;29;20252;-66
2023/12/11 17:23:57;;;;;;;0.30;0.30;;;10.60;99.90;;;;;;4955147;29;20645;-68
2023/12/11 17:26:23;;;;;;;0.35;0.35;;;10.60;99.90;;;;;;4955031;29;20199;-65
2023/12/11 17:28:50;;;;;;;0.30;0.30;;;10.60;99.90;;;;;;4954787;29;20219;-65
2023/12/11 17:31:15;;;;;;;0.33;0.33;;;10.60;99.90;;;;;;4955200;29;20912;-66
2023/12/11 17:33:41;;;;;;;0.60;0.60;;;10.60;99.90;;;;;;4954909;29;20425;-62
2023/12/11 17:36:08;;;;;;;0.40;0.40;;;10.60;99.90;;;;;;4953474;29;20205;-65
2023/12/11 17:38:33;;;;;;;0.30;0.30;;;10.60;99.90;;;;;;4954185;28;20233;-65
2023/12/11 17:41:00;;;;;;;0.33;0.33;;;10.60;99.90;;;;;;4958186;29;20177;-65
2023/12/11 17:43:25;;;;;;;0.30;0.20;;;10.60;99.90;;;;;;4958530;29;20268;-67
2023/12/11 17:45:51;;;;;;;0.40;0.40;;;10.60;99.90;;;;;;4955342;29;20464;-68
2023/12/11 17:48:17;;;;;;;0.50;0.50;;;10.50;99.90;;;;;;4957836;29;20177;-66
2023/12/11 17:50:42;;;;;;;0.30;0.30;;;10.50;99.90;;;;;;4958198;29;20285;-69
2023/12/11 17:53:09;;;;;;;0.30;0.30;;;10.50;99.90;;;;;;4958230;29;20219;-65
2023/12/11 17:55:35;;;;;;;0.40;0.40;;;10.40;99.90;;;;;;4957920;28;20201;-66